Time;durP1;ratioP1;P1;durP2;ratioP2;P2;SDS_P1;SDS_P2;PMS_P1;PMS_P2;Temp;Humidity;BMP_temperature;BMP_pressure;BME280_temperature;BME280_humidity;BME280_pressure;Samples;Min_cycle;Max_cycle;Signal;HPM_P1;HPM_P2
2021/04/07 00:02:01;;;;;;;4.05;2.83;;;;;;;4.81;70.05;101998.47;5010306;28;20088;-49
2021/04/07 00:04:27;;;;;;;6.05;2.92;;;;;;;4.78;70.68;101993.53;5018976;28;20049;-46
2021/04/07 00:06:55;;;;;;;5.57;2.55;;;;;;;4.74;70.54;101992.41;5017320;28;20580;-49
2021/04/07 00:09:24;;;;;;;5.57;2.50;;;;;;;4.76;70.24;101993.00;5032659;28;20042;-48
2021/04/07 00:11:50;;;;;;;4.63;2.58;;;;;;;4.74;70.26;102004.22;5030065;28;20560;-47
2021/04/07 00:14:16;;;;;;;5.07;2.70;;;;;;;4.72;70.67;102016.56;5033549;28;20100;-45
2021/04/07 00:16:43;;;;;;;9.52;2.88;;;;;;;4.74;70.57;102011.63;5015736;28;20499;-47
2021/04/07 00:19:09;;;;;;;5.97;2.38;;;;;;;4.71;70.71;102014.94;5013180;28;20046;-47
2021/04/07 00:21:35;;;;;;;4.95;3.00;;;;;;;4.69;70.28;102006.13;5020998;28;20045;-47
2021/04/07 00:24:02;;;;;;;3.45;2.22;;;;;;;4.67;70.72;102009.16;5027760;28;20127;-50
2021/04/07 00:26:28;;;;;;;3.67;2.58;;;;;;;4.63;70.88;102002.56;5012695;28;20049;-47
2021/04/07 00:28:55;;;;;;;6.03;3.22;;;;;;;4.61;70.81;101999.28;5025045;28;20088;-45
2021/04/07 00:31:21;;;;;;;3.42;2.10;;;;;;;4.60;70.97;101997.66;5013668;28;20069;-47
2021/04/07 00:33:47;;;;;;;4.32;2.15;;;;;;;4.58;70.85;102010.00;5018811;28;20574;-45
2021/04/07 00:36:14;;;;;;;6.28;2.47;;;;;;;4.52;70.75;102013.84;5013274;28;20103;-50
2021/04/07 00:38:40;;;;;;;4.05;2.65;;;;;;;4.52;70.81;102011.09;5019860;28;20041;-46
2021/04/07 00:41:07;;;;;;;2.75;2.22;;;;;;;4.48;71.04;102018.22;5001744;28;20378;-49
2021/04/07 00:43:33;;;;;;;5.25;2.20;;;;;;;4.46;70.92;102017.66;5014122;28;20086;-46
2021/04/07 00:45:59;;;;;;;4.95;2.72;;;;;;;4.44;70.92;102007.00;5013170;28;20124;-46
2021/04/07 00:48:27;;;;;;;7.85;2.22;;;;;;;4.45;71.21;102013.31;5017028;28;20471;-48
2021/04/07 00:50:54;;;;;;;4.60;2.20;;;;;;;4.41;71.01;102014.94;5014359;28;20037;-47
2021/04/07 00:53:20;;;;;;;8.27;2.90;;;;;;;4.42;71.04;102013.84;5006423;28;20103;-48
2021/04/07 00:55:46;;;;;;;7.05;2.50;;;;;;;4.36;71.14;102006.69;5006792;28;20085;-45
2021/04/07 00:58:15;;;;;;;2.17;1.83;;;;;;;4.31;70.99;102005.59;5014619;28;20120;-45
2021/04/07 01:00:42;;;;;;;8.13;2.47;;;;;;;4.28;70.76;102011.63;5013389;28;20568;-46
2021/04/07 01:03:11;;;;;;;5.55;2.15;;;;;;;4.18;71.49;102011.59;5012036;28;20049;-46
2021/04/07 01:05:38;;;;;;;4.43;2.45;;;;;;;4.16;70.95;102005.56;5014371;28;20479;-45
2021/04/07 01:08:05;;;;;;;5.40;2.00;;;;;;;4.10;71.00;102008.59;5027432;28;20078;-51
2021/04/07 01:10:31;;;;;;;2.80;1.73;;;;;;;4.04;70.74;102004.19;5021329;28;20076;-46
2021/04/07 01:12:58;;;;;;;4.95;2.15;;;;;;;3.98;71.09;102005.25;5030890;28;20053;-47
2021/04/07 01:15:24;;;;;;;5.90;1.70;;;;;;;3.93;71.25;101989.66;5023654;28;20100;-47
2021/04/07 01:17:51;;;;;;;5.25;2.47;;;;;;;3.92;71.04;101995.41;5024978;28;20154;-47
2021/04/07 01:20:20;;;;;;;2.47;1.80;;;;;;;3.85;71.06;102000.31;5018317;28;20050;-47
2021/04/07 01:22:50;;;;;;;4.32;1.90;;;;;;;3.84;70.74;102002.22;5009476;28;20054;-48
2021/04/07 01:25:16;;;;;;;2.40;1.73;;;;;;;3.85;70.92;101994.81;5018191;28;20046;-47
2021/04/07 01:27:43;;;;;;;4.28;2.10;;;;;;;3.81;70.69;102008.25;5018796;28;20084;-48
2021/04/07 01:30:13;;;;;;;2.55;1.92;;;;;;;3.75;70.85;102003.00;5002212;28;20064;-45
2021/04/07 01:32:40;;;;;;;3.45;1.70;;;;;;;3.73;71.13;102013.41;5021355;28;20491;-46
2021/04/07 01:35:08;;;;;;;2.80;1.90;;;;;;;3.67;71.01;102010.66;5004991;28;20041;-47
2021/04/07 01:37:35;;;;;;;3.90;1.75;;;;;;;3.63;71.21;102005.97;5011032;28;20108;-45
2021/04/07 01:40:06;;;;;;;3.75;1.73;;;;;;;3.58;71.25;102009.53;5011754;28;20108;-47
2021/04/07 01:42:33;;;;;;;2.63;1.48;;;;;;;3.60;71.20;102004.59;5010894;28;20045;-48
2021/04/07 01:45:05;;;;;;;3.47;1.50;;;;;;;3.55;71.22;102001.84;5015026;28;20205;-49
2021/04/07 01:47:35;;;;;;;6.10;2.17;;;;;;;3.60;71.06;102009.28;5006487;28;20051;-47
2021/04/07 01:50:04;;;;;;;1.92;1.35;;;;;;;3.63;71.31;102005.97;5027883;28;20044;-45
2021/04/07 01:52:30;;;;;;;4.47;2.03;;;;;;;3.64;71.20;102007.63;5028901;28;20145;-50
2021/04/07 01:54:57;;;;;;;5.97;1.83;;;;;;;3.68;71.39;102012.28;5008847;28;20085;-48
2021/04/07 01:57:23;;;;;;;5.22;1.08;;;;;;;3.69;71.28;102013.13;5014368;28;20067;-47
2021/04/07 01:59:50;;;;;;;2.83;1.38;;;;;;;3.71;70.88;102004.66;5003846;28;20120;-46
2021/04/07 02:02:16;;;;;;;3.65;2.83;;;;;;;3.61;71.44;102008.16;5027676;28;20159;-48
2021/04/07 02:04:43;;;;;;;5.68;1.20;;;;;;;3.58;71.37;102003.22;5020802;28;20081;-44
2021/04/07 02:07:14;;;;;;;4.93;1.88;;;;;;;3.54;71.54;101997.47;5006007;28;20128;-45
2021/04/07 02:09:41;;;;;;;2.67;1.63;;;;;;;3.53;71.48;101989.50;5012304;28;20092;-46
2021/04/07 02:12:08;;;;;;;4.80;1.63;;;;;;;3.54;71.55;102005.69;5010769;28;20459;-47
2021/04/07 02:14:34;;;;;;;6.15;1.50;;;;;;;3.57;71.54;101994.19;5011011;28;20104;-45
2021/04/07 02:17:03;;;;;;;4.60;1.30;;;;;;;3.59;71.36;102007.63;5023469;28;20111;-45
2021/04/07 02:19:32;;;;;;;2.53;1.50;;;;;;;3.62;71.44;102007.09;5021022;28;20128;-46
2021/04/07 02:22:07;;;;;;;5.13;1.25;;;;;;;3.62;71.40;101990.66;5012484;28;20476;-45
2021/04/07 02:24:38;;;;;;;2.13;1.33;;;;;;;3.64;71.54;101993.94;5009297;28;20096;-46
2021/04/07 02:27:19;;;;;;;1.77;1.35;;;;;;;3.60;71.84;102001.06;5025500;28;20045;-45
2021/04/07 02:29:48;;;;;;;2.78;1.35;;;;;;;3.57;71.38;101987.91;5012522;28;20128;-46
2021/04/07 02:32:14;;;;;;;3.13;1.33;;;;;;;3.56;71.52;101997.19;5013370;28;20046;-45
2021/04/07 02:34:43;;;;;;;6.80;1.33;;;;;;;3.53;71.36;101989.50;5014633;28;20096;-46
2021/04/07 02:37:10;;;;;;;3.50;1.60;;;;;;;3.44;71.66;101988.41;5009421;28;20049;-46
2021/04/07 02:39:37;;;;;;;7.75;1.98;;;;;;;3.42;71.56;101996.84;5009741;28;20103;-45
2021/04/07 02:42:04;;;;;;;7.30;1.63;;;;;;;3.39;71.46;102002.06;5027033;28;20391;-45
2021/04/07 02:44:30;;;;;;;3.00;1.48;;;;;;;3.40;71.46;101990.00;5009857;28;20057;-46
2021/04/07 02:46:57;;;;;;;3.92;3.17;;;;;;;3.40;71.35;101998.22;5017160;28;20127;-45
2021/04/07 02:49:24;;;;;;;3.20;1.20;;;;;;;3.40;71.37;101992.75;5013170;28;20058;-47
2021/04/07 02:51:51;;;;;;;2.00;1.00;;;;;;;3.37;71.15;101996.84;5014881;28;20080;-45
2021/04/07 02:54:18;;;;;;;3.85;1.48;;;;;;;3.33;71.63;101992.19;5014560;28;20142;-47
2021/04/07 02:56:45;;;;;;;2.97;1.77;;;;;;;3.30;71.29;101990.78;5013301;28;20136;-43
2021/04/07 02:59:11;;;;;;;4.22;1.20;;;;;;;3.26;71.30;101988.84;5019105;28;20045;-46
2021/04/07 03:01:39;;;;;;;1.85;1.20;;;;;;;3.22;71.34;101990.47;5025819;28;20502;-44
2021/04/07 03:04:06;;;;;;;5.25;1.60;;;;;;;3.16;71.46;101997.00;5007078;28;20053;-45
2021/04/07 03:06:32;;;;;;;2.33;1.95;;;;;;;3.10;71.34;101990.66;5015335;28;20072;-43
2021/04/07 03:08:58;;;;;;;1.73;1.17;;;;;;;3.11;71.30;101988.75;5010546;28;20058;-42
2021/04/07 03:11:26;;;;;;;4.30;1.63;;;;;;;3.16;71.29;102002.47;5026704;28;20103;-45
2021/04/07 03:13:52;;;;;;;5.07;1.83;;;;;;;3.20;71.03;101998.97;5021282;28;20084;-45
2021/04/07 03:16:19;;;;;;;8.10;1.35;;;;;;;3.19;71.24;102004.69;5002440;28;20538;-44
2021/04/07 03:18:45;;;;;;;4.72;1.50;;;;;;;3.18;71.09;101995.66;5022301;28;20073;-48
2021/04/07 03:21:12;;;;;;;2.40;1.30;;;;;;;3.18;71.02;101998.38;5013309;28;20072;-47
2021/04/07 03:23:38;;;;;;;4.88;2.25;;;;;;;3.15;71.17;101995.38;5018846;28;20092;-45
2021/04/07 03:26:04;;;;;;;4.75;1.23;;;;;;;3.22;71.05;102001.41;5007151;28;20066;-44
2021/04/07 03:28:31;;;;;;;2.35;1.25;;;;;;;3.21;71.14;102014.28;5020274;28;20599;-43
2021/04/07 03:30:57;;;;;;;4.32;1.67;;;;;;;3.24;70.92;102005.53;5012860;28;20081;-47
2021/04/07 03:33:29;;;;;;;2.97;1.50;;;;;;;3.29;71.10;102005.56;5022842;28;20535;-50
2021/04/07 03:35:57;;;;;;;2.55;1.23;;;;;;;3.31;70.72;102008.84;5020761;28;20108;-50
2021/04/07 03:38:24;;;;;;;7.25;2.33;;;;;;;3.34;71.10;102004.75;5013838;28;20049;-47
2021/04/07 03:40:50;;;;;;;7.28;1.30;;;;;;;3.32;71.11;102002.28;5008959;28;20454;-44
2021/04/07 03:43:19;;;;;;;3.30;1.88;;;;;;;3.31;71.12;102006.09;5021156;28;20455;-44
2021/04/07 03:45:48;;;;;;;6.88;2.53;;;;;;;3.34;70.86;102007.50;5016046;28;20050;-45
2021/04/07 03:48:16;;;;;;;1.67;1.20;;;;;;;3.32;70.99;102004.19;5020317;28;20107;-44
2021/04/07 03:50:44;;;;;;;2.45;1.38;;;;;;;3.34;70.76;102005.59;5031919;28;20061;-48
2021/04/07 03:53:11;;;;;;;2.83;1.20;;;;;;;3.33;71.08;102008.59;5006331;28;20042;-47
2021/04/07 03:55:39;;;;;;;5.13;1.15;;;;;;;3.31;71.05;102000.63;5019469;28;20060;-47
2021/04/07 03:58:05;;;;;;;2.03;1.27;;;;;;;3.30;71.50;102003.66;5013577;28;20081;-44
2021/04/07 04:00:32;;;;;;;4.00;1.35;;;;;;;3.35;71.23;102001.75;5030999;28;20073;-47
2021/04/07 04:02:58;;;;;;;3.38;1.73;;;;;;;3.37;71.08;102006.97;5032549;28;20124;-47
2021/04/07 04:05:25;;;;;;;2.45;1.25;;;;;;;3.37;70.97;102009.69;5022899;28;20048;-46
2021/04/07 04:07:51;;;;;;;3.58;1.15;;;;;;;3.40;70.97;102014.66;5015710;28;20054;-45
2021/04/07 04:10:18;;;;;;;4.13;0.85;;;;;;;3.40;71.25;102009.16;5015227;28;20049;-45
2021/04/07 04:12:45;;;;;;;2.03;1.10;;;;;;;3.43;70.96;102003.16;5025983;28;20495;-45
2021/04/07 04:15:13;;;;;;;6.40;1.30;;;;;;;3.44;71.09;102010.28;5030739;28;20092;-45
2021/04/07 04:17:40;;;;;;;1.90;1.20;;;;;;;3.43;71.24;102000.44;5007361;28;20459;-54
2021/04/07 04:20:11;;;;;;;3.35;1.38;;;;;;;3.43;71.00;102003.16;4995168;28;20407;-45
2021/04/07 04:22:39;;;;;;;5.20;1.33;;;;;;;3.46;70.88;101999.91;4995657;28;20041;-48
2021/04/07 04:25:07;;;;;;;7.53;3.78;;;;;;;3.52;70.97;102012.53;5017003;28;20068;-44
2021/04/07 04:27:34;;;;;;;7.50;2.10;;;;;;;3.47;70.95;102012.47;5013345;28;20442;-45
2021/04/07 04:30:00;;;;;;;3.05;1.60;;;;;;;3.47;70.99;102013.31;5011137;28;20070;-47
2021/04/07 04:32:27;;;;;;;1.90;1.13;;;;;;;3.50;71.17;102021.00;5013169;28;20158;-49
2021/04/07 04:34:53;;;;;;;2.20;1.83;;;;;;;3.47;71.08;102013.31;5018160;28;20076;-48
2021/04/07 04:37:19;;;;;;;4.65;1.60;;;;;;;3.52;71.05;102010.59;5025313;28;20034;-52
2021/04/07 04:39:45;;;;;;;4.28;1.48;;;;;;;3.48;71.36;102016.88;5008462;28;20051;-47
2021/04/07 04:42:12;;;;;;;3.80;2.33;;;;;;;3.45;71.51;102011.94;5005205;28;20407;-48
2021/04/07 04:44:38;;;;;;;4.20;1.33;;;;;;;3.41;71.71;102016.31;5024332;28;20069;-47
2021/04/07 04:47:05;;;;;;;3.28;1.27;;;;;;;3.36;71.89;102019.00;5011871;28;20514;-45
2021/04/07 04:49:49;;;;;;;6.38;2.00;;;;;;;3.37;72.06;102004.22;4987257;28;20057;-45
2021/04/07 04:52:15;;;;;;;5.75;1.77;;;;;;;3.33;71.86;102005.84;5024746;28;20053;-48
2021/04/07 04:54:41;;;;;;;2.53;1.58;;;;;;;3.40;71.97;102015.47;5003694;28;20046;-47
2021/04/07 04:57:08;;;;;;;3.58;1.73;;;;;;;3.46;71.89;102014.41;5009713;28;20428;-47
2021/04/07 04:59:34;;;;;;;3.72;1.50;;;;;;;3.51;71.71;102008.97;5026550;28;20053;-49
2021/04/07 05:02:00;;;;;;;2.92;1.58;;;;;;;3.53;71.79;102014.16;5026019;28;20117;-47
2021/04/07 05:04:26;;;;;;;4.55;2.10;;;;;;;3.56;71.96;102010.88;5016119;28;20125;-49
2021/04/07 05:06:53;;;;;;;3.47;1.50;;;;;;;3.54;72.04;102011.16;5002666;28;20045;-48
2021/04/07 05:09:19;;;;;;;4.60;1.50;;;;;;;3.57;71.90;102012.53;5010095;28;20489;-45
2021/04/07 05:11:45;;;;;;;4.65;1.88;;;;;;;3.59;71.70;102013.91;5005467;28;20045;-50
2021/04/07 05:14:12;;;;;;;4.38;1.73;;;;;;;3.53;72.05;102023.19;5011522;28;20587;-48
2021/04/07 05:16:38;;;;;;;3.90;1.80;;;;;;;3.50;72.10;102022.91;5011825;28;20115;-50
2021/04/07 05:19:04;;;;;;;3.80;1.67;;;;;;;3.49;72.33;102008.41;5013953;28;20101;-48
2021/04/07 05:21:31;;;;;;;7.50;2.08;;;;;;;3.50;72.38;102009.22;5020987;28;20129;-50
2021/04/07 05:23:57;;;;;;;5.15;1.77;;;;;;;3.56;72.07;102008.16;5009986;28;20100;-48
2021/04/07 05:26:23;;;;;;;6.40;2.22;;;;;;;3.61;71.81;102017.22;5030221;28;20037;-47
2021/04/07 05:28:49;;;;;;;5.00;1.83;;;;;;;3.61;72.09;102006.25;5024952;28;20077;-49
2021/04/07 05:31:16;;;;;;;3.13;1.17;;;;;;;3.61;71.80;102010.91;5006290;28;20125;-51
2021/04/07 05:33:44;;;;;;;5.13;1.38;;;;;;;3.63;71.99;102005.97;5015948;28;20368;-50
2021/04/07 05:36:13;;;;;;;3.33;1.50;;;;;;;3.62;71.79;102009.81;5021739;28;20065;-48
2021/04/07 05:38:42;;;;;;;2.92;1.48;;;;;;;3.61;71.71;102016.38;5030641;28;20069;-47
2021/04/07 05:41:10;;;;;;;6.22;2.05;;;;;;;3.56;71.96;102019.09;5025271;28;20053;-48
2021/04/07 05:43:38;;;;;;;3.70;1.70;;;;;;;3.54;71.98;102016.66;5029134;28;20144;-47
2021/04/07 05:46:05;;;;;;;6.47;1.42;;;;;;;3.54;72.07;102018.56;5021868;28;20161;-49
2021/04/07 05:48:32;;;;;;;2.28;1.58;;;;;;;3.54;71.84;102022.13;5031435;28;20045;-47
2021/04/07 05:51:02;;;;;;;3.50;1.67;;;;;;;3.57;72.18;102031.72;5027052;28;20134;-48
2021/04/07 05:53:29;;;;;;;3.40;1.33;;;;;;;3.58;71.76;102031.44;5016338;28;20096;-49
2021/04/07 05:55:57;;;;;;;3.15;1.33;;;;;;;3.57;72.06;102021.56;4994793;28;20129;-44
2021/04/07 05:58:25;;;;;;;4.57;2.38;;;;;;;3.58;71.90;102020.47;5018933;28;20049;-45
2021/04/07 06:00:51;;;;;;;2.53;2.33;;;;;;;3.62;71.68;102018.03;5014649;28;20053;-46
2021/04/07 06:03:18;;;;;;;6.85;1.70;;;;;;;3.63;71.72;102008.72;5019695;28;20124;-47
2021/04/07 06:05:47;;;;;;;5.18;1.48;;;;;;;3.62;71.63;102013.38;5026440;28;20057;-49
2021/04/07 06:08:14;;;;;;;5.90;2.20;;;;;;;3.63;71.77;102008.72;5014194;28;20523;-44
2021/04/07 06:10:45;;;;;;;3.33;1.48;;;;;;;3.60;71.77;102014.75;5020789;28;20086;-44
2021/04/07 06:13:13;;;;;;;3.47;1.73;;;;;;;3.58;71.83;102015.00;5009703;28;20818;-46
2021/04/07 06:15:40;;;;;;;9.00;2.20;;;;;;;3.61;71.75;102010.91;4993548;28;20042;-44
2021/04/07 06:18:08;;;;;;;8.13;1.75;;;;;;;3.61;71.71;102011.72;5010402;28;20055;-45
2021/04/07 06:20:45;;;;;;;1.95;1.48;;;;;;;3.60;72.32;102014.75;5004679;28;20110;-47
2021/04/07 06:23:13;;;;;;;2.15;1.38;;;;;;;3.62;71.53;102020.78;5018892;28;20104;-44
2021/04/07 06:25:40;;;;;;;3.00;1.42;;;;;;;3.58;71.96;102022.38;5022992;28;20088;-45
2021/04/07 06:28:08;;;;;;;2.42;1.20;;;;;;;3.56;72.30;102027.31;5009077;28;20478;-48
2021/04/07 06:33:15;;;;;;;9.55;2.22;;;;;;;3.58;72.53;102030.59;5027108;28;20049;-44
2021/04/07 06:35:47;;;;;;;1.67;1.20;;;;;;;3.63;72.06;102033.34;5011080;28;20050;-46
2021/04/07 06:38:14;;;;;;;5.63;1.85;;;;;;;3.69;71.95;102035.03;5001111;28;20034;-45
2021/04/07 06:40:42;;;;;;;4.57;1.40;;;;;;;3.73;72.11;102030.69;5010840;28;20414;-44
2021/04/07 06:43:09;;;;;;;6.00;2.45;;;;;;;3.78;71.84;102027.97;4992437;28;20045;-48
2021/04/07 06:45:39;;;;;;;10.10;2.00;;;;;;;3.84;71.77;102032.34;5018692;28;20120;-47
2021/04/07 06:48:07;;;;;;;12.45;1.95;;;;;;;3.82;72.19;102034.53;5010339;28;20088;-44
2021/04/07 06:50:35;;;;;;;6.53;1.80;;;;;;;3.89;71.90;102035.09;5008846;28;20100;-46
2021/04/07 06:53:04;;;;;;;4.95;1.45;;;;;;;3.88;71.50;102032.63;5017533;28;20076;-51
2021/04/07 06:55:30;;;;;;;3.47;1.50;;;;;;;3.93;71.84;102035.38;5009070;28;20081;-48
2021/04/07 06:57:57;;;;;;;5.22;1.83;;;;;;;3.95;71.44;102042.25;5024557;28;20508;-47
2021/04/07 07:00:26;;;;;;;4.80;1.52;;;;;;;4.05;71.69;102038.72;5025038;28;20042;-46
2021/04/07 07:03:00;;;;;;;4.20;1.55;;;;;;;4.11;71.49;102043.09;5010483;28;20455;-45
2021/04/07 07:05:27;;;;;;;3.85;1.75;;;;;;;4.18;71.36;102041.75;5017614;28;20101;-44
2021/04/07 07:08:11;;;;;;;2.58;1.77;;;;;;;4.15;71.44;102050.53;5017300;28;20053;-45
2021/04/07 07:10:39;;;;;;;5.18;1.52;;;;;;;4.17;71.52;102042.84;5010242;28;20046;-48
2021/04/07 07:13:08;;;;;;;3.88;1.50;;;;;;;4.17;71.40;102047.50;5016508;28;20045;-47
2021/04/07 07:15:36;;;;;;;3.72;1.67;;;;;;;4.16;71.43;102043.94;5001866;28;20081;-48
2021/04/07 07:18:04;;;;;;;5.60;1.80;;;;;;;4.17;71.33;102031.91;5012058;28;20119;-44
2021/04/07 07:20:34;;;;;;;3.03;1.70;;;;;;;4.21;71.44;102037.63;5018845;28;20042;-46
2021/04/07 07:23:02;;;;;;;4.32;2.38;;;;;;;4.28;71.50;102039.06;5022703;28;20775;-45
2021/04/07 07:25:29;;;;;;;3.40;2.03;;;;;;;4.36;71.36;102036.84;4994886;28;20447;-46
2021/04/07 07:28:14;;;;;;;2.97;1.75;;;;;;;4.43;71.12;102051.13;4991409;28;20437;-46
2021/04/07 07:30:45;;;;;;;6.10;2.10;;;;;;;4.43;71.00;102046.47;5016862;28;20499;-45
2021/04/07 07:33:17;;;;;;;4.97;2.20;;;;;;;4.45;71.35;102048.94;5020000;28;20048;-50
2021/04/07 07:35:45;;;;;;;4.68;2.00;;;;;;;4.49;71.12;102047.28;5019242;28;20125;-47
2021/04/07 07:38:12;;;;;;;5.10;2.83;;;;;;;4.50;71.22;102047.00;5025101;28;20052;-46
2021/04/07 07:40:38;;;;;;;7.05;1.98;;;;;;;4.44;71.26;102052.78;5028751;28;20063;-46
2021/04/07 07:43:05;;;;;;;3.83;1.83;;;;;;;4.44;71.01;102047.28;5033259;28;20060;-45
2021/04/07 07:45:36;;;;;;;5.80;2.35;;;;;;;4.49;71.36;102052.78;5016988;28;20038;-44
2021/04/07 07:48:04;;;;;;;2.97;1.60;;;;;;;4.52;71.19;102054.97;5013419;28;20050;-44
2021/04/07 07:50:43;;;;;;;9.32;2.25;;;;;;;4.54;70.92;102053.59;5012960;28;20042;-45
2021/04/07 07:53:20;;;;;;;4.75;2.15;;;;;;;4.54;71.38;102036.31;5011228;28;20129;-43
2021/04/07 07:55:55;;;;;;;5.03;2.45;;;;;;;4.60;71.02;102044.28;5005461;28;20436;-47
2021/04/07 07:58:26;;;;;;;7.50;1.75;;;;;;;4.68;70.85;102043.75;5013120;28;20081;-46
2021/04/07 08:01:12;;;;;;;6.55;1.70;;;;;;;4.72;70.84;102044.00;5005957;28;20151;-45
2021/04/07 08:03:39;;;;;;;15.98;3.03;;;;;;;4.84;71.01;102047.31;4990451;28;20065;-45
2021/04/07 08:06:06;;;;;;;2.70;1.23;;;;;;;4.88;70.48;102053.88;4989500;28;20066;-44
2021/04/07 08:08:45;;;;;;;5.13;1.17;;;;;;;4.86;70.83;102045.09;4993441;28;20234;-46
2021/04/07 08:11:12;;;;;;;7.97;2.83;;;;;;;4.90;70.78;102059.91;4992549;28;20056;-45
2021/04/07 08:13:40;;;;;;;7.95;1.85;;;;;;;4.97;70.65;102054.97;4993424;28;20070;-44
2021/04/07 08:16:07;;;;;;;4.25;1.70;;;;;;;5.05;70.78;102051.69;4993580;28;20133;-44
2021/04/07 08:18:35;;;;;;;4.53;1.55;;;;;;;5.16;70.50;102050.56;4989451;28;20419;-46
2021/04/07 08:21:03;;;;;;;4.63;2.55;;;;;;;5.24;70.48;102047.22;4974428;28;20047;-45
2021/04/07 08:23:30;;;;;;;3.50;1.73;;;;;;;5.26;70.51;102061.53;4991914;28;20077;-44
2021/04/07 08:25:58;;;;;;;8.02;2.08;;;;;;;5.27;70.32;102063.16;5009326;28;20050;-46
2021/04/07 08:28:28;;;;;;;4.50;1.98;;;;;;;5.29;70.21;102066.47;5000014;28;20038;-50
2021/04/07 08:30:55;;;;;;;4.30;1.70;;;;;;;5.39;70.07;102060.94;4988227;28;20149;-46
2021/04/07 08:33:22;;;;;;;10.70;1.48;;;;;;;5.43;69.97;102064.75;5000113;28;20498;-45
2021/04/07 08:35:52;;;;;;;5.50;1.85;;;;;;;5.43;70.19;102062.00;4997201;28;20054;-45
2021/04/07 08:38:33;;;;;;;8.45;1.50;;;;;;;5.43;69.62;102056.53;4992576;28;20041;-45
2021/04/07 08:41:11;;;;;;;3.80;1.63;;;;;;;5.47;69.80;102057.63;5011243;28;20049;-46
2021/04/07 08:43:38;;;;;;;8.15;2.20;;;;;;;5.55;70.28;102058.97;4998577;28;20078;-44
2021/04/07 08:46:15;;;;;;;8.02;1.80;;;;;;;5.59;69.52;102053.75;5008651;28;20396;-44
2021/04/07 08:48:43;;;;;;;7.95;1.35;;;;;;;5.67;69.75;102055.88;5009633;28;20057;-44
2021/04/07 08:51:15;;;;;;;3.97;1.60;;;;;;;5.72;69.44;102051.19;5009995;28;20052;-44
2021/04/07 08:53:47;;;;;;;7.47;2.27;;;;;;;5.68;69.63;102049.31;4997797;28;20232;-45
2021/04/07 08:56:15;;;;;;;7.43;2.25;;;;;;;5.75;69.29;102047.91;4987801;28;20303;-46
2021/04/07 08:58:53;;;;;;;12.35;2.42;;;;;;;5.74;68.97;102042.69;5006662;28;20464;-46
2021/04/07 09:01:39;;;;;;;5.95;1.40;;;;;;;5.73;69.37;102046.53;4999057;28;20069;-44
2021/04/07 09:04:12;;;;;;;2.97;1.15;;;;;;;5.81;69.36;102051.44;4992074;28;20053;-46
2021/04/07 09:06:41;;;;;;;7.10;2.75;;;;;;;5.89;68.93;102042.66;5004348;28;20054;-48
2021/04/07 09:09:08;;;;;;;8.45;2.92;;;;;;;6.02;68.86;102047.53;4991459;28;20057;-46
2021/04/07 09:11:39;;;;;;;9.05;4.57;;;;;;;6.11;69.12;102051.34;5004441;28;20453;-44
2021/04/07 09:14:06;;;;;;;15.70;5.63;;;;;;;6.15;68.43;102052.41;4995391;28;20097;-47
2021/04/07 09:16:40;;;;;;;11.93;3.83;;;;;;;6.16;68.74;102048.56;4989623;28;20057;-48
2021/04/07 09:19:23;;;;;;;11.82;4.78;;;;;;;6.22;68.46;102047.44;5007925;28;20391;-45
2021/04/07 09:21:58;;;;;;;7.97;2.67;;;;;;;6.29;68.39;102036.91;4988597;28;20042;-46
2021/04/07 09:24:28;;;;;;;7.60;2.38;;;;;;;6.40;68.26;102049.50;4980083;28;20136;-48
2021/04/07 09:26:57;;;;;;;6.57;1.45;;;;;;;6.34;67.53;102050.63;4999826;28;20185;-47
2021/04/07 09:29:24;;;;;;;6.03;1.40;;;;;;;6.37;67.75;102038.25;4990317;28;20440;-47
2021/04/07 09:31:52;;;;;;;5.15;1.38;;;;;;;6.42;67.57;102041.78;4991546;28;20050;-46
2021/04/07 09:34:18;;;;;;;7.20;1.88;;;;;;;6.50;67.44;102048.59;4994031;28;20065;-45
2021/04/07 09:36:46;;;;;;;5.78;2.17;;;;;;;6.63;67.34;102037.78;4996279;28;20141;-47
2021/04/07 09:39:15;;;;;;;3.10;1.40;;;;;;;6.77;67.48;102045.38;4993974;28;20034;-44
2021/04/07 09:41:44;;;;;;;8.73;2.47;;;;;;;6.87;66.84;102046.09;4988787;28;20113;-48
2021/04/07 09:44:16;;;;;;;3.88;0.90;;;;;;;6.90;66.03;102047.44;4989158;28;20045;-54
2021/04/07 09:46:55;;;;;;;5.28;1.02;;;;;;;6.87;65.50;102042.53;4992119;28;20121;-45
2021/04/07 09:49:29;;;;;;;5.93;1.10;;;;;;;6.90;65.76;102042.78;5000255;28;20465;-46
2021/04/07 09:51:57;;;;;;;5.78;1.25;;;;;;;6.89;66.16;102040.28;5021942;28;20080;-48
2021/04/07 09:54:31;;;;;;;7.63;1.52;;;;;;;6.92;64.83;102043.31;5009351;28;20436;-47
2021/04/07 09:57:12;;;;;;;4.43;1.17;;;;;;;6.94;65.10;102045.75;4990475;28;20058;-48
2021/04/07 09:59:45;;;;;;;8.55;1.33;;;;;;;7.01;65.28;102044.34;4999101;28;20483;-50
2021/04/07 10:02:23;;;;;;;5.88;1.10;;;;;;;7.11;65.33;102032.38;5006803;28;20530;-46
2021/04/07 10:04:54;;;;;;;5.65;1.30;;;;;;;7.14;65.13;102037.31;5016683;28;20549;-47
2021/04/07 10:07:28;;;;;;;3.35;1.15;;;;;;;7.21;65.21;102033.09;5005376;28;20554;-48
2021/04/07 10:09:56;;;;;;;11.85;3.08;;;;;;;7.35;64.96;102031.31;4994126;28;20365;-48
2021/04/07 10:12:25;;;;;;;1.50;0.85;;;;;;;7.46;64.98;102036.69;4999114;28;20050;-49
2021/04/07 10:14:54;;;;;;;4.68;1.10;;;;;;;7.47;64.27;102030.88;5003844;28;20057;-47
2021/04/07 10:17:29;;;;;;;4.65;0.75;;;;;;;7.50;61.90;102034.97;5007760;28;20502;-47
2021/04/07 10:20:15;;;;;;;6.95;1.20;;;;;;;7.51;62.31;102033.88;5009437;28;20575;-47
2021/04/07 10:22:43;;;;;;;2.70;0.98;;;;;;;7.69;63.27;102027.59;4996363;28;20149;-46
2021/04/07 10:27:39;;;;;;;6.50;3.08;;;;;;;7.81;62.16;102031.56;5008838;28;20050;-48
2021/04/07 10:30:10;;;;;;;12.15;2.10;;;;;;;7.93;62.00;102017.34;5009004;28;20348;-48
2021/04/07 10:32:49;;;;;;;6.18;1.85;;;;;;;7.94;59.39;102028.06;5015805;28;20628;-45
2021/04/07 10:35:28;;;;;;;6.13;1.83;;;;;;;8.03;60.65;102027.41;5004972;28;20096;-49
2021/04/07 10:38:03;;;;;;;13.10;1.10;;;;;;;8.14;60.51;102018.72;5006412;28;20100;-51
2021/04/07 10:40:31;;;;;;;3.40;1.30;;;;;;;8.32;60.61;102020.69;5013086;28;20501;-47
2021/04/07 10:43:18;;;;;;;1.65;0.70;;;;;;;8.53;58.58;102022.00;5028790;28;20455;-48
2021/04/07 10:45:59;;;;;;;6.78;0.82;;;;;;;8.72;58.42;102024.72;5028307;28;20549;-49
2021/04/07 10:48:26;;;;;;;3.55;0.73;;;;;;;8.71;59.31;102012.03;5000729;28;712215;-48
2021/04/07 10:50:53;;;;;;;1.67;0.65;;;;;;;8.72;58.86;102019.22;5004668;28;20046;-49
2021/04/07 10:53:38;;;;;;;2.35;0.68;;;;;;;8.72;54.62;102019.22;4983211;28;20049;-48
2021/04/07 10:56:20;;;;;;;4.95;1.23;;;;;;;8.50;56.55;102014.31;5008871;28;20029;-46
2021/04/07 10:59:01;;;;;;;2.00;0.75;;;;;;;8.50;56.75;102013.47;4992427;28;20046;-50
2021/04/07 11:01:33;;;;;;;6.13;1.02;;;;;;;8.50;57.22;102019.00;5008548;28;20046;-49
2021/04/07 11:04:18;;;;;;;1.65;1.00;;;;;;;8.54;56.79;102014.53;5006148;28;20042;-49
2021/04/07 11:06:56;;;;;;;3.75;1.50;;;;;;;8.65;56.87;102007.75;5011298;28;20418;-51
2021/04/07 11:09:33;;;;;;;1.38;0.77;;;;;;;8.72;55.54;102007.34;5000022;28;20391;-48
2021/04/07 11:12:02;;;;;;;3.22;0.90;;;;;;;8.71;56.68;102003.75;4989272;28;20042;-47
2021/04/07 11:14:28;;;;;;;4.18;0.70;;;;;;;8.66;56.83;102009.34;5001027;28;20060;-48
2021/04/07 11:16:56;;;;;;;9.80;2.08;;;;;;;8.58;56.92;102013.63;5005291;28;20073;-55
2021/04/07 11:19:23;;;;;;;2.75;1.02;;;;;;;8.60;57.29;102007.81;5010551;28;20053;-50
2021/04/07 11:21:50;;;;;;;8.65;1.20;;;;;;;8.59;57.38;102011.69;4990998;28;20041;-53
2021/04/07 11:24:17;;;;;;;3.53;0.75;;;;;;;8.52;56.81;102003.00;5014963;28;20545;-45
2021/04/07 11:26:44;;;;;;;5.50;1.00;;;;;;;8.49;56.83;101998.88;4997449;28;20081;-45
2021/04/07 11:29:10;;;;;;;7.63;2.22;;;;;;;8.67;56.89;102005.50;5019532;28;20050;-50
2021/04/07 11:31:36;;;;;;;2.45;1.05;;;;;;;8.71;56.60;102006.50;5010651;28;20083;-53
2021/04/07 11:34:07;;;;;;;6.45;1.05;;;;;;;8.63;56.52;101993.41;5000162;28;20053;-50
2021/04/07 11:37:04;;;;;;;3.72;0.98;;;;;;;8.54;56.01;101996.03;4992454;28;20131;-51
2021/04/07 11:44:31;;;;;;;3.97;1.50;;;;;;;9.02;55.77;101991.06;4994962;28;20124;-49
2021/04/07 11:46:59;;;;;;;5.63;1.33;;;;;;;9.17;55.90;101988.00;5003828;28;20047;-53
2021/04/07 11:49:26;;;;;;;4.53;0.80;;;;;;;9.21;55.65;101990.16;5007038;28;20074;-49
2021/04/07 11:51:53;;;;;;;2.58;1.25;;;;;;;9.19;55.63;101980.22;5003572;28;20073;-53
2021/04/07 11:54:20;;;;;;;2.40;0.80;;;;;;;9.17;55.19;101984.41;5011932;28;20553;-48